createdAt,value
2023-03-08T00:01:26.357Z,5.18
2023-03-08T00:03:56.344Z,5.85
2023-03-08T00:06:26.612Z,5.30
2023-03-08T00:08:57.780Z,5.28
2023-03-08T00:11:28.338Z,4.28
2023-03-08T00:13:56.700Z,4.90
2023-03-08T00:16:25.659Z,5.70
2023-03-08T00:18:54.326Z,6.38
2023-03-08T00:21:23.440Z,5.57
2023-03-08T00:23:54.746Z,6.05
2023-03-08T00:26:23.396Z,5.40
2023-03-08T00:28:53.355Z,4.90
2023-03-08T00:31:22.180Z,5.65
2023-03-08T00:33:55.194Z,5.53
2023-03-08T00:36:24.032Z,4.57
2023-03-08T00:38:52.545Z,5.07
2023-03-08T00:41:21.407Z,4.78
2023-03-08T00:43:49.831Z,4.75
2023-03-08T00:46:19.507Z,5.95
2023-03-08T00:48:48.162Z,5.03
2023-03-08T00:51:19.867Z,5.32
2023-03-08T00:53:48.727Z,5.53
2023-03-08T00:56:17.318Z,4.72
2023-03-08T00:58:46.540Z,5.10
2023-03-08T01:01:18.070Z,4.95
2023-03-08T01:03:50.185Z,4.93
2023-03-08T01:06:18.808Z,5.72
2023-03-08T01:08:47.709Z,5.10
2023-03-08T01:11:21.700Z,6.32
2023-03-08T01:13:51.491Z,5.47
2023-03-08T01:16:22.260Z,5.00
2023-03-08T01:18:52.652Z,6.10
2023-03-08T01:21:22.379Z,4.80
2023-03-08T01:23:51.586Z,6.15
2023-03-08T01:26:22.376Z,5.13
2023-03-08T01:28:51.371Z,5.70
2023-03-08T01:31:21.906Z,5.38
2023-03-08T01:33:52.103Z,5.38
2023-03-08T01:36:23.854Z,5.07
2023-03-08T01:38:52.677Z,5.25
2023-03-08T01:41:24.005Z,5.43
2023-03-08T01:43:53.586Z,5.30
2023-03-08T01:46:28.630Z,5.82
2023-03-08T01:49:24.185Z,4.93
2023-03-08T01:51:57.895Z,5.65
2023-03-08T01:54:32.071Z,6.35
2023-03-08T01:57:04.956Z,5.53
2023-03-08T01:59:35.742Z,5.40
2023-03-08T02:02:04.720Z,5.00
2023-03-08T02:04:36.865Z,6.57
2023-03-08T02:09:37.590Z,5.22
2023-03-08T02:12:12.099Z,4.65
2023-03-08T02:14:42.172Z,4.43
2023-03-08T02:17:12.022Z,4.43
2023-03-08T02:19:48.462Z,4.53
2023-03-08T02:22:18.187Z,4.38
2023-03-08T02:24:49.125Z,4.05
2023-03-08T02:27:22.731Z,3.30
2023-03-08T02:29:51.447Z,4.28
2023-03-08T02:32:20.113Z,4.95
2023-03-08T02:34:48.737Z,4.10
2023-03-08T02:37:17.264Z,5.15
2023-03-08T02:39:49.434Z,4.80
2023-03-08T02:42:17.732Z,4.45
2023-03-08T02:44:45.943Z,4.88
2023-03-08T02:47:14.494Z,4.88
2023-03-08T02:49:43.039Z,4.55
2023-03-08T02:52:11.934Z,6.00
2023-03-08T02:54:40.450Z,6.72
2023-03-08T02:57:10.343Z,5.07
2023-03-08T02:59:40.049Z,3.30
2023-03-08T03:02:08.895Z,4.85
2023-03-08T03:04:37.262Z,4.25
2023-03-08T03:07:08.022Z,5.45
2023-03-08T03:09:37.619Z,4.63
2023-03-08T03:12:06.431Z,4.60
2023-03-08T03:14:40.090Z,4.63
2023-03-08T03:17:08.492Z,5.72
2023-03-08T03:19:38.558Z,5.93
2023-03-08T03:22:07.225Z,3.17
2023-03-08T03:24:37.527Z,5.85
2023-03-08T03:27:07.656Z,4.57
2023-03-08T03:29:40.050Z,6.82
2023-03-08T03:32:14.280Z,4.95
2023-03-08T03:34:42.976Z,6.15
2023-03-08T03:37:11.932Z,5.57
2023-03-08T03:39:42.725Z,5.32
2023-03-08T03:42:15.117Z,5.13
2023-03-08T03:44:51.741Z,5.38
2023-03-08T03:47:22.749Z,6.47
2023-03-08T03:49:56.162Z,4.95
2023-03-08T03:52:25.441Z,5.50
2023-03-08T03:57:29.077Z,6.13
2023-03-08T03:59:59.334Z,5.72
2023-03-08T04:02:29.156Z,4.72
2023-03-08T04:05:01.049Z,5.22
2023-03-08T04:07:33.919Z,5.60
2023-03-08T04:10:03.176Z,5.75
2023-03-08T04:12:33.138Z,4.30
2023-03-08T04:15:02.754Z,4.40
2023-03-08T04:17:33.369Z,4.97
2023-03-08T04:20:02.053Z,4.97
2023-03-08T04:22:34.494Z,5.35
2023-03-08T04:25:10.603Z,5.50
2023-03-08T04:27:46.141Z,5.40
2023-03-08T04:30:16.266Z,3.70
2023-03-08T04:32:45.331Z,4.88
2023-03-08T04:35:14.833Z,3.80
2023-03-08T04:37:47.079Z,4.47
2023-03-08T04:40:18.004Z,3.58
2023-03-08T04:42:55.678Z,4.20
2023-03-08T04:45:31.824Z,5.65
2023-03-08T04:48:04.018Z,5.45
2023-03-08T04:50:34.168Z,4.32
2023-03-08T04:53:03.492Z,5.03
2023-03-08T04:55:31.773Z,6.57
2023-03-08T04:58:00.974Z,6.10
2023-03-08T05:00:32.939Z,4.43
2023-03-08T05:03:01.346Z,6.18
2023-03-08T05:05:30.146Z,5.10
2023-03-08T05:08:04.061Z,5.30
2023-03-08T05:10:33.573Z,6.00
2023-03-08T05:13:01.836Z,4.65
2023-03-08T05:15:31.801Z,6.10
2023-03-08T05:18:00.367Z,6.97
2023-03-08T05:20:29.117Z,4.25
2023-03-08T05:22:59.526Z,5.30
2023-03-08T05:25:41.949Z,3.92
2023-03-08T05:28:15.683Z,5.55
2023-03-08T05:30:46.504Z,4.47
2023-03-08T05:33:16.052Z,6.15
2023-03-08T05:35:45.020Z,5.97
2023-03-08T05:38:13.476Z,5.28
2023-03-08T05:40:42.475Z,4.22
2023-03-08T05:43:12.616Z,6.18
2023-03-08T05:45:41.355Z,5.70
2023-03-08T05:48:11.269Z,4.72
2023-03-08T05:50:40.467Z,5.07
2023-03-08T05:53:09.275Z,4.38
2023-03-08T05:55:38.289Z,7.63
2023-03-08T05:58:07.225Z,6.75
2023-03-08T06:00:36.069Z,6.50
2023-03-08T06:03:04.617Z,7.65
2023-03-08T06:05:37.899Z,6.30
2023-03-08T06:08:06.769Z,7.10
2023-03-08T06:10:35.523Z,7.85
2023-03-08T06:13:04.504Z,7.03
2023-03-08T06:15:33.070Z,7.90
2023-03-08T06:18:02.068Z,7.10
2023-03-08T06:20:31.580Z,7.85
2023-03-08T06:23:01.331Z,6.82
2023-03-08T06:25:29.523Z,6.18
2023-03-08T06:27:57.687Z,5.22
2023-03-08T06:30:35.345Z,6.32
2023-03-08T06:33:05.734Z,6.10
2023-03-08T06:35:34.595Z,7.95
2023-03-08T06:38:06.024Z,6.82
2023-03-08T06:40:35.710Z,7.20
2023-03-08T06:43:04.444Z,5.57
2023-03-08T06:45:34.768Z,7.07
2023-03-08T06:48:03.575Z,4.63
2023-03-08T06:50:31.953Z,6.97
2023-03-08T06:53:00.468Z,8.70
2023-03-08T06:55:50.626Z,8.40
2023-03-08T06:58:19.138Z,7.00
2023-03-08T07:00:47.633Z,5.10
2023-03-08T07:03:16.186Z,6.10
2023-03-08T07:05:44.674Z,8.15
2023-03-08T07:08:13.245Z,6.45
2023-03-08T07:10:41.477Z,4.88
2023-03-08T07:13:11.110Z,4.90
2023-03-08T07:15:41.448Z,5.72
2023-03-08T07:18:09.981Z,4.57
2023-03-08T07:20:38.506Z,6.25
2023-03-08T07:23:07.059Z,4.90
2023-03-08T07:25:35.285Z,4.55
2023-03-08T07:28:03.785Z,4.82
2023-03-08T07:30:33.494Z,5.97
2023-03-08T07:33:02.068Z,6.25
2023-03-08T07:35:30.814Z,5.53
2023-03-08T07:37:59.377Z,3.55
2023-03-08T07:40:27.997Z,5.85
2023-03-08T07:42:57.553Z,6.00
2023-03-08T07:45:33.181Z,5.03
2023-03-08T07:48:01.918Z,5.05
2023-03-08T07:50:30.686Z,5.63
2023-03-08T07:53:01.051Z,4.68
2023-03-08T07:55:29.708Z,5.32
2023-03-08T07:57:58.230Z,5.70
2023-03-08T08:00:27.524Z,5.55
2023-03-08T08:02:57.541Z,7.20
2023-03-08T08:05:26.324Z,6.18
2023-03-08T08:07:54.869Z,4.65
2023-03-08T08:10:23.522Z,5.60
2023-03-08T08:12:51.707Z,7.22
2023-03-08T08:15:20.889Z,4.35
2023-03-08T08:17:49.455Z,4.22
2023-03-08T08:20:19.592Z,4.88
2023-03-08T08:22:47.804Z,7.25
2023-03-08T08:25:16.370Z,9.10
2023-03-08T08:27:44.862Z,7.68
2023-03-08T08:30:15.488Z,4.22
2023-03-08T08:32:43.832Z,5.47
2023-03-08T08:35:12.537Z,6.97
2023-03-08T08:37:42.272Z,7.43
2023-03-08T08:40:12.969Z,9.05
2023-03-08T08:42:41.666Z,6.90
2023-03-08T08:45:11.596Z,7.72
2023-03-08T08:47:39.899Z,6.95
2023-03-08T08:50:08.919Z,8.25
2023-03-08T08:52:37.495Z,4.55
2023-03-08T08:55:08.049Z,7.25
2023-03-08T08:57:36.862Z,8.10
2023-03-08T09:00:08.166Z,8.98
2023-03-08T09:02:37.016Z,8.73
2023-03-08T09:05:05.815Z,7.82
2023-03-08T09:07:34.394Z,8.18
2023-03-08T09:10:02.928Z,8.32
2023-03-08T09:12:32.536Z,9.50
2023-03-08T09:15:00.838Z,8.73
2023-03-08T09:17:29.469Z,9.23
2023-03-08T09:19:57.660Z,8.57
2023-03-08T09:22:26.521Z,5.35
2023-03-08T09:24:55.031Z,10.55
2023-03-08T09:27:23.232Z,8.85
2023-03-08T09:29:52.964Z,10.35
2023-03-08T09:32:21.632Z,10.57
2023-03-08T09:34:50.200Z,9.27
2023-03-08T09:37:18.827Z,8.00
2023-03-08T09:39:48.079Z,11.35
2023-03-08T09:42:24.097Z,8.23
2023-03-08T09:45:18.182Z,11.80
2023-03-08T09:47:52.298Z,10.38
2023-03-08T09:50:38.835Z,8.25
2023-03-08T09:53:20.241Z,9.40
2023-03-08T09:55:52.506Z,8.82
2023-03-08T09:58:36.334Z,5.72
2023-03-08T10:01:22.610Z,6.95
2023-03-08T10:04:35.224Z,7.38
2023-03-08T10:07:22.373Z,8.57
2023-03-08T10:10:06.894Z,6.93
2023-03-08T10:12:53.116Z,8.63
2023-03-08T10:15:23.966Z,8.13
2023-03-08T10:17:58.498Z,6.65
2023-03-08T10:23:01.013Z,8.15
2023-03-08T10:25:34.058Z,7.25
2023-03-08T10:28:05.370Z,7.20
2023-03-08T10:30:38.775Z,9.25
2023-03-08T10:33:12.768Z,7.32
2023-03-08T10:35:57.498Z,7.63
2023-03-08T10:38:30.258Z,7.95
2023-03-08T10:41:07.347Z,6.85
2023-03-08T10:43:42.458Z,7.70
2023-03-08T10:46:14.987Z,9.73
2023-03-08T10:48:44.659Z,9.48
2023-03-08T10:51:19.503Z,8.73
2023-03-08T10:53:55.832Z,8.02
2023-03-08T10:56:28.294Z,13.35
2023-03-08T10:58:58.309Z,9.00
2023-03-08T11:01:29.228Z,10.60
2023-03-08T11:04:03.802Z,7.47
2023-03-08T11:09:03.633Z,9.50
2023-03-08T11:11:42.500Z,9.25
2023-03-08T11:14:12.711Z,9.63
2023-03-08T11:16:52.055Z,10.18
2023-03-08T11:19:40.053Z,8.05
2023-03-08T11:22:24.561Z,8.18
2023-03-08T11:25:21.821Z,11.30
2023-03-08T11:28:13.932Z,11.73
2023-03-08T11:30:56.723Z,12.05
2023-03-08T11:33:55.063Z,11.45
2023-03-08T11:36:31.315Z,11.13
2023-03-08T11:39:11.790Z,10.48
2023-03-08T11:41:49.376Z,5.88
2023-03-08T11:44:36.350Z,10.90
2023-03-08T11:47:44.992Z,8.90
2023-03-08T11:50:22.801Z,11.90
2023-03-08T11:53:18.034Z,10.25
2023-03-08T11:58:40.104Z,10.70
2023-03-08T12:01:16.918Z,10.50
2023-03-08T12:03:48.486Z,11.35
2023-03-08T12:06:29.139Z,7.72
2023-03-08T12:09:07.888Z,10.35
2023-03-08T12:11:42.795Z,10.38
2023-03-08T12:14:18.080Z,10.50
2023-03-08T12:16:52.408Z,10.55
2023-03-08T12:19:34.064Z,6.18
2023-03-08T12:22:16.827Z,8.27
2023-03-08T12:24:53.777Z,11.60
2023-03-08T12:27:29.560Z,11.57
2023-03-08T12:30:05.460Z,11.63
2023-03-08T12:32:38.256Z,13.57
2023-03-08T12:35:24.951Z,10.52
2023-03-08T12:37:58.190Z,12.38
2023-03-08T12:40:40.752Z,11.18
2023-03-08T12:43:13.704Z,11.65
2023-03-08T12:45:45.109Z,10.32
2023-03-08T12:48:25.186Z,11.70
2023-03-08T12:51:03.552Z,10.85
2023-03-08T12:53:38.256Z,11.80
2023-03-08T12:58:53.309Z,10.82
2023-03-08T13:01:36.224Z,10.73
2023-03-08T13:04:06.881Z,11.10
2023-03-08T13:07:25.738Z,11.90
2023-03-08T13:10:05.671Z,11.82
2023-03-08T13:12:51.940Z,9.40
2023-03-08T13:15:25.529Z,7.43
2023-03-08T13:18:06.102Z,11.90
2023-03-08T13:21:14.354Z,11.68
2023-03-08T13:23:50.128Z,10.68
2023-03-08T13:26:50.456Z,8.57
2023-03-08T13:29:22.250Z,9.20
2023-03-08T13:31:51.467Z,11.43
2023-03-08T13:34:28.907Z,10.73
2023-03-08T13:36:57.680Z,9.15
2023-03-08T13:39:30.057Z,8.70
2023-03-08T13:42:09.576Z,6.40
2023-03-08T13:44:39.698Z,8.05
2023-03-08T13:47:23.621Z,7.60
2023-03-08T13:49:54.638Z,8.85
2023-03-08T13:52:26.505Z,5.65
2023-03-08T13:54:57.311Z,6.47
2023-03-08T13:57:28.630Z,6.20
2023-03-08T14:00:01.420Z,5.95
2023-03-08T14:02:34.944Z,3.88
2023-03-08T14:05:03.956Z,4.38
2023-03-08T14:07:33.027Z,5.65
2023-03-08T14:10:01.648Z,4.55
2023-03-08T14:12:32.786Z,4.97
2023-03-08T14:15:06.170Z,4.05
2023-03-08T14:17:37.118Z,4.50
2023-03-08T14:20:20.206Z,3.92
2023-03-08T14:22:50.533Z,3.13
2023-03-08T14:25:31.045Z,3.53
2023-03-08T14:27:59.867Z,2.70
2023-03-08T14:30:32.345Z,2.60
2023-03-08T14:33:06.161Z,2.97
2023-03-08T14:35:38.372Z,2.20
2023-03-08T14:38:15.443Z,2.17
2023-03-08T14:40:50.463Z,2.38
2023-03-08T14:43:21.664Z,2.08
2023-03-08T14:45:57.529Z,1.20
2023-03-08T14:48:29.997Z,0.90
2023-03-08T14:51:01.687Z,0.77
2023-03-08T14:53:34.417Z,0.90
2023-03-08T14:56:06.706Z,0.80
2023-03-08T14:58:39.170Z,0.50
2023-03-08T15:01:08.875Z,0.63
2023-03-08T15:03:37.114Z,0.85
2023-03-08T15:06:13.623Z,0.90
2023-03-08T15:08:42.370Z,0.77
2023-03-08T15:11:10.666Z,0.82
2023-03-08T15:13:38.947Z,0.80
2023-03-08T15:16:14.205Z,0.95
2023-03-08T15:18:43.154Z,1.83
2023-03-08T15:21:15.701Z,1.02
2023-03-08T15:23:44.485Z,1.13
2023-03-08T15:26:20.911Z,1.23
2023-03-08T15:28:49.635Z,1.30
2023-03-08T15:31:19.262Z,1.30
2023-03-08T15:33:47.842Z,0.75
2023-03-08T15:36:18.516Z,1.30
2023-03-08T15:38:47.434Z,1.40
2023-03-08T15:41:17.822Z,1.13
2023-03-08T15:43:46.947Z,1.10
2023-03-08T15:46:16.089Z,1.20
2023-03-08T15:48:46.030Z,0.98
2023-03-08T15:51:19.621Z,1.08
2023-03-08T15:53:48.598Z,1.05
2023-03-08T15:56:17.686Z,1.30
2023-03-08T15:58:46.099Z,1.50
2023-03-08T16:01:14.592Z,1.25
2023-03-08T16:03:43.145Z,1.40
2023-03-08T16:06:14.998Z,1.23
2023-03-08T16:08:43.575Z,1.20
2023-03-08T16:11:14.011Z,1.50
2023-03-08T16:13:43.007Z,2.25
2023-03-08T16:16:15.551Z,1.48
2023-03-08T16:18:47.868Z,1.20
2023-03-08T16:21:18.027Z,1.77
2023-03-08T16:23:46.641Z,1.88
2023-03-08T16:26:17.812Z,1.60
2023-03-08T16:28:47.837Z,1.60
2023-03-08T16:31:17.777Z,1.42
2023-03-08T16:33:46.308Z,2.00
2023-03-08T16:36:15.190Z,1.20
2023-03-08T16:38:44.850Z,1.10
2023-03-08T16:41:14.295Z,1.20
2023-03-08T16:43:47.327Z,0.90
2023-03-08T16:46:18.288Z,0.90
2023-03-08T16:48:49.221Z,1.35
2023-03-08T16:51:19.829Z,0.73
2023-03-08T16:53:50.345Z,0.63
2023-03-08T16:56:20.365Z,0.90
2023-03-08T16:58:48.773Z,0.60
2023-03-08T17:01:19.461Z,0.93
2023-03-08T17:03:48.210Z,0.90
2023-03-08T17:06:19.762Z,0.70
2023-03-08T17:08:50.205Z,0.80
2023-03-08T17:11:21.539Z,0.70
2023-03-08T17:13:51.212Z,0.80
2023-03-08T17:16:20.375Z,0.60
2023-03-08T17:18:49.860Z,0.70
2023-03-08T17:21:19.053Z,1.70
2023-03-08T17:23:49.813Z,0.63
2023-03-08T17:26:20.091Z,0.85
2023-03-08T17:28:50.406Z,1.00
2023-03-08T17:31:21.729Z,0.57
2023-03-08T17:33:50.656Z,0.63
2023-03-08T17:36:19.740Z,1.00
2023-03-08T17:38:49.360Z,0.85
2023-03-08T17:41:18.159Z,1.35
2023-03-08T17:43:46.704Z,0.90
2023-03-08T17:46:17.865Z,1.00
2023-03-08T17:48:46.832Z,0.55
2023-03-08T17:51:18.599Z,0.80
2023-03-08T17:53:49.156Z,0.60
2023-03-08T17:56:20.006Z,0.68
2023-03-08T17:58:49.193Z,0.75
2023-03-08T18:01:20.161Z,0.77
2023-03-08T18:03:49.057Z,0.90
2023-03-08T18:06:23.536Z,0.65
2023-03-08T18:08:53.498Z,0.70
2023-03-08T18:11:22.388Z,0.40
2023-03-08T18:13:51.351Z,0.52
2023-03-08T18:16:21.036Z,0.85
2023-03-08T18:18:50.210Z,0.50
2023-03-08T18:21:19.153Z,0.40
2023-03-08T18:23:48.319Z,0.63
2023-03-08T18:26:18.792Z,0.63
2023-03-08T18:28:47.572Z,0.77
2023-03-08T18:31:18.245Z,0.90
2023-03-08T18:33:47.005Z,1.83
2023-03-08T18:36:15.248Z,1.38
2023-03-08T18:38:44.350Z,0.90
2023-03-08T18:41:15.084Z,0.70
2023-03-08T18:43:45.154Z,0.90
2023-03-08T18:46:15.183Z,1.30
2023-03-08T18:48:46.315Z,1.25
2023-03-08T18:51:16.571Z,0.90
2023-03-08T18:53:45.355Z,0.80
2023-03-08T18:56:13.959Z,1.00
2023-03-08T18:58:43.975Z,1.80
2023-03-08T19:01:15.187Z,2.25
2023-03-08T19:03:45.442Z,1.50
2023-03-08T19:06:15.355Z,0.98
2023-03-08T19:08:45.035Z,1.45
2023-03-08T19:11:15.873Z,3.95
2023-03-08T19:13:45.856Z,6.00
2023-03-08T19:16:20.524Z,5.80
2023-03-08T19:21:19.738Z,1.00
2023-03-08T19:23:48.788Z,1.35
2023-03-08T19:26:38.246Z,1.10
2023-03-08T19:29:14.412Z,1.52
2023-03-08T19:31:44.842Z,1.15
2023-03-08T19:34:14.272Z,1.35
2023-03-08T19:36:44.079Z,1.20
2023-03-08T19:39:16.829Z,2.35
2023-03-08T19:41:48.433Z,2.10
2023-03-08T19:44:18.768Z,1.30
2023-03-08T19:46:47.545Z,1.27
2023-03-08T19:49:18.353Z,2.20
2023-03-08T19:51:48.952Z,1.70
2023-03-08T19:54:17.895Z,1.20
2023-03-08T19:56:46.455Z,1.15
2023-03-08T19:59:15.146Z,0.80
2023-03-08T20:01:45.175Z,1.08
2023-03-08T20:04:14.242Z,0.70
2023-03-08T20:06:46.507Z,0.65
2023-03-08T20:09:21.264Z,0.65
2023-03-08T20:11:52.993Z,0.50
2023-03-08T20:14:21.850Z,0.65
2023-03-08T20:16:52.001Z,0.60
2023-03-08T20:19:20.518Z,0.98
2023-03-08T20:21:49.067Z,0.47
2023-03-08T20:24:18.797Z,0.47
2023-03-08T20:26:47.215Z,0.55
2023-03-08T20:29:15.847Z,0.70
2023-03-08T20:31:45.134Z,0.60
2023-03-08T20:34:14.882Z,0.60
2023-03-08T20:36:43.458Z,0.90
2023-03-08T20:39:12.123Z,0.98
2023-03-08T20:41:40.625Z,0.60
2023-03-08T20:44:11.878Z,0.70
2023-03-08T20:46:40.427Z,0.52
2023-03-08T20:49:11.084Z,0.40
2023-03-08T20:51:40.802Z,1.23
2023-03-08T20:54:09.917Z,0.70
2023-03-08T20:56:38.446Z,0.77
2023-03-08T20:59:06.654Z,0.93
2023-03-08T21:01:35.021Z,0.55
2023-03-08T21:04:03.358Z,0.70
2023-03-08T21:06:33.079Z,0.60
2023-03-08T21:09:02.816Z,0.60
2023-03-08T21:11:31.485Z,0.60
2023-03-08T21:13:59.975Z,0.90
2023-03-08T21:16:30.416Z,0.60
2023-03-08T21:19:01.358Z,0.73
2023-03-08T21:21:34.071Z,0.77
2023-03-08T21:24:06.607Z,0.82
2023-03-08T21:26:35.647Z,0.60
2023-03-08T21:29:06.181Z,1.45
2023-03-08T21:31:36.351Z,1.25
2023-03-08T21:34:06.559Z,0.88
2023-03-08T21:36:36.151Z,1.52
2023-03-08T21:39:07.791Z,2.50
2023-03-08T21:41:38.967Z,3.03
2023-03-08T21:44:12.271Z,3.10
2023-03-08T21:46:41.802Z,4.60
2023-03-08T21:49:17.660Z,4.82
2023-03-08T21:51:46.414Z,5.22
2023-03-08T21:54:16.736Z,4.30
2023-03-08T21:56:45.154Z,4.20
2023-03-08T21:59:14.206Z,4.32
2023-03-08T22:01:45.553Z,4.68
2023-03-08T22:04:14.506Z,4.43
2023-03-08T22:06:43.175Z,3.58
2023-03-08T22:09:11.868Z,4.45
2023-03-08T22:11:41.654Z,4.47
2023-03-08T22:14:09.949Z,5.25
2023-03-08T22:16:40.886Z,4.65
2023-03-08T22:19:10.790Z,3.67
2023-03-08T22:21:39.298Z,4.63
2023-03-08T22:24:08.060Z,5.07
2023-03-08T22:26:36.293Z,4.28
2023-03-08T22:29:05.885Z,4.20
2023-03-08T22:31:34.529Z,5.25
2023-03-08T22:34:02.762Z,4.82
2023-03-08T22:36:31.294Z,4.60
2023-03-08T22:38:59.595Z,4.95
2023-03-08T22:41:29.336Z,4.57
2023-03-08T22:43:57.863Z,5.05
2023-03-08T22:46:28.913Z,4.50
2023-03-08T22:48:59.257Z,4.55
2023-03-08T22:51:28.622Z,5.05
2023-03-08T22:53:59.034Z,3.78
2023-03-08T22:56:30.543Z,4.38
2023-03-08T22:58:59.289Z,3.97
2023-03-08T23:01:30.910Z,3.67
2023-03-08T23:04:01.357Z,3.65
2023-03-08T23:06:31.782Z,3.47
2023-03-08T23:09:04.426Z,3.55
2023-03-08T23:11:33.930Z,3.40
2023-03-08T23:14:03.010Z,2.85
2023-03-08T23:16:33.378Z,2.65
2023-03-08T23:19:02.458Z,3.17
2023-03-08T23:21:33.485Z,3.35
2023-03-08T23:24:02.187Z,2.95
2023-03-08T23:26:32.500Z,4.00
2023-03-08T23:29:03.295Z,3.63
2023-03-08T23:31:35.765Z,3.17
2023-03-08T23:34:05.798Z,3.55
2023-03-08T23:36:35.188Z,3.80
2023-03-08T23:39:04.198Z,3.42
2023-03-08T23:41:33.654Z,4.28
2023-03-08T23:44:03.859Z,3.80
2023-03-08T23:46:33.839Z,3.30
2023-03-08T23:49:02.812Z,3.65
2023-03-08T23:51:34.044Z,3.53
2023-03-08T23:54:03.540Z,3.75
2023-03-08T23:56:37.834Z,3.38
2023-03-08T23:59:10.598Z,2.92
